Wetterdaten: Woche 30.07.12 - 05.08.12 (KW31)
Datum Zeit Temperatur Luftfeuchte Luftdruck Niederschlag Windrichtung Sonnenschein Solar Wind
30.07.2012 00:00 12,8 C 97 % 1016,1 hPa 0,0 l/m N 0,00 h 0 W/m 0,1 km/h (0 Bft)
30.07.2012 01:00 12,2 C 97 % 1016,3 hPa 0,0 l/m N 0,00 h 0 W/m 0,1 km/h (0 Bft)
30.07.2012 02:00 11,6 C 98 % 1016,2 hPa 0,0 l/m N 0,00 h 0 W/m 0,0 km/h (0 Bft)
30.07.2012 03:00 11,1 C 98 % 1016,3 hPa 0,0 l/m N 0,00 h 0 W/m 0,0 km/h (0 Bft)
30.07.2012 04:00 10,1 C 98 % 1016,5 hPa 0,0 l/m N 0,00 h 0 W/m 0,0 km/h (0 Bft)
30.07.2012 05:00 10,1 C 98 % 1016,8 hPa 0,0 l/m N 0,00 h 5 W/m 0,0 km/h (0 Bft)
30.07.2012 06:00 10,0 C 99 % 1017,2 hPa 0,0 l/m N 0,00 h 30 W/m 0,0 km/h (0 Bft)
30.07.2012 07:00 10,9 C 99 % 1017,5 hPa 0,0 l/m N 0,25 h 104 W/m 0,0 km/h (0 Bft)
30.07.2012 08:00 13,4 C 97 % 1017,9 hPa 0,0 l/m N 0,67 h 243 W/m 0,0 km/h (0 Bft)
30.07.2012 09:00 16,3 C 90 % 1017,8 hPa 0,0 l/m S-SW 0,75 h 346 W/m 7,7 km/h (2 Bft)
30.07.2012 10:00 17,6 C 77 % 1017,6 hPa 0,0 l/m W-SW 0,75 h 514 W/m 12,4 km/h (3 Bft)
30.07.2012 11:00 18,9 C 64 % 1017,6 hPa 0,0 l/m W-SW 0,83 h 675 W/m 19,4 km/h (3 Bft)
30.07.2012 12:00 20,0 C 57 % 1017,4 hPa 0,0 l/m W 0,92 h 755 W/m 21,3 km/h (4 Bft)
30.07.2012 13:00 21,3 C 54 % 1017,0 hPa 0,0 l/m W-SW 1,00 h 903 W/m 20,1 km/h (4 Bft)
30.07.2012 14:00 21,9 C 52 % 1016,6 hPa 0,0 l/m W-SW 1,00 h 907 W/m 21,4 km/h (4 Bft)
30.07.2012 15:00 22,6 C 49 % 1016,4 hPa 0,0 l/m W-SW 1,00 h 809 W/m 19,6 km/h (3 Bft)
30.07.2012 16:00 22,7 C 49 % 1016,2 hPa 0,0 l/m W 1,00 h 701 W/m 21,0 km/h (4 Bft)
30.07.2012 17:00 22,7 C 50 % 1016,0 hPa 0,0 l/m SW 1,00 h 556 W/m 16,2 km/h (3 Bft)
30.07.2012 18:00 22,3 C 50 % 1015,9 hPa 0,0 l/m W 1,00 h 341 W/m 15,7 km/h (3 Bft)
30.07.2012 19:00 20,9 C 54 % 1016,0 hPa 0,0 l/m W-SW 0,33 h 101 W/m 8,5 km/h (2 Bft)
30.07.2012 20:00 18,6 C 65 % 1016,3 hPa 0,0 l/m N-NW 0,00 h 23 W/m 2,3 km/h (1 Bft)
30.07.2012 21:00 16,5 C 74 % 1016,7 hPa 0,0 l/m N 0,00 h 0 W/m 2,7 km/h (1 Bft)
30.07.2012 22:00 15,3 C 77 % 1016,9 hPa 0,0 l/m N 0,00 h 0 W/m 1,9 km/h (1 Bft)
30.07.2012 23:00 14,0 C 85 % 1017,2 hPa 0,0 l/m N 0,00 h 0 W/m 0,8 km/h (0 Bft)
31.07.2012 00:00 13,7 C 87 % 1017,4 hPa 0,0 l/m N 0,00 h 0 W/m 0,7 km/h (0 Bft)
31.07.2012 01:00 13,4 C 87 % 1017,4 hPa 0,0 l/m N 0,00 h 0 W/m 2,5 km/h (1 Bft)
31.07.2012 02:00 13,8 C 85 % 1017,3 hPa 0,0 l/m N-NW 0,00 h 0 W/m 3,3 km/h (1 Bft)
31.07.2012 03:00 12,8 C 89 % 1017,1 hPa 0,0 l/m N 0,00 h 0 W/m 0,5 km/h (0 Bft)
31.07.2012 04:00 12,0 C 92 % 1017,2 hPa 0,0 l/m N 0,00 h 0 W/m 0,0 km/h (0 Bft)
31.07.2012 05:00 11,6 C 94 % 1017,2 hPa 0,0 l/m N 0,00 h 5 W/m 0,4 km/h (0 Bft)
31.07.2012 06:00 12,1 C 93 % 1017,4 hPa 0,0 l/m N 0,00 h 20 W/m 0,3 km/h (0 Bft)
31.07.2012 07:00 12,7 C 92 % 1017,5 hPa 0,0 l/m N 0,00 h 67 W/m 0,7 km/h (0 Bft)
31.07.2012 08:00 14,1 C 90 % 1017,6 hPa 0,0 l/m N 0,08 h 147 W/m 2,1 km/h (1 Bft)
31.07.2012 09:00 17,5 C 82 % 1017,3 hPa 0,0 l/m S-SW 0,92 h 457 W/m 5,2 km/h (1 Bft)
31.07.2012 10:00 20,6 C 66 % 1017,1 hPa 0,0 l/m S 1,00 h 622 W/m 8,4 km/h (2 Bft)
31.07.2012 11:00 21,7 C 58 % 1017,1 hPa 0,0 l/m SW 0,67 h 615 W/m 8,4 km/h (2 Bft)
31.07.2012 12:00 22,1 C 57 % 1016,9 hPa 0,0 l/m SW 0,25 h 431 W/m 7,8 km/h (2 Bft)
31.07.2012 13:00 23,8 C 51 % 1016,6 hPa 0,0 l/m W-SW 0,83 h 806 W/m 18,0 km/h (3 Bft)
31.07.2012 14:00 24,5 C 48 % 1016,2 hPa 0,0 l/m W 1,00 h 918 W/m 20,1 km/h (4 Bft)
31.07.2012 15:00 24,8 C 47 % 1016,0 hPa 0,0 l/m W 0,75 h 660 W/m 21,3 km/h (4 Bft)
31.07.2012 16:00 23,5 C 52 % 1015,9 hPa 0,0 l/m W 0,17 h 261 W/m 14,5 km/h (3 Bft)
31.07.2012 17:00 23,7 C 53 % 1015,7 hPa 0,0 l/m N-NW 0,83 h 433 W/m 12,6 km/h (3 Bft)
31.07.2012 18:00 23,4 C 54 % 1015,6 hPa 0,0 l/m N-NW 0,83 h 279 W/m 6,0 km/h (2 Bft)
31.07.2012 19:00 23,6 C 53 % 1015,6 hPa 0,0 l/m N-NW 1,00 h 193 W/m 5,7 km/h (1 Bft)
31.07.2012 20:00 21,7 C 62 % 1015,6 hPa 0,0 l/m N-NW 0,17 h 26 W/m 2,9 km/h (1 Bft)
31.07.2012 21:00 18,5 C 76 % 1016,1 hPa 0,0 l/m N 0,00 h 0 W/m 1,3 km/h (1 Bft)
31.07.2012 22:00 17,3 C 81 % 1016,5 hPa 0,0 l/m N 0,00 h 0 W/m 1,1 km/h (0 Bft)
31.07.2012 23:00 16,3 C 85 % 1016,4 hPa 0,0 l/m N 0,00 h 0 W/m 1,2 km/h (1 Bft)
01.08.2012 00:00 15,9 C 85 % 1016,2 hPa 0,0 l/m N-NW 0,00 h 0 W/m 3,5 km/h (1 Bft)
01.08.2012 01:00 15,4 C 86 % 1015,8 hPa 0,0 l/m N-NW 0,00 h 0 W/m 4,8 km/h (1 Bft)
01.08.2012 02:00 14,8 C 88 % 1015,6 hPa 0,0 l/m N-NW 0,00 h 0 W/m 4,9 km/h (1 Bft)
01.08.2012 03:00 14,2 C 90 % 1015,5 hPa 0,0 l/m N-NW 0,00 h 0 W/m 4,1 km/h (1 Bft)
01.08.2012 04:00 13,7 C 92 % 1015,2 hPa 0,0 l/m N 0,00 h 0 W/m 3,1 km/h (1 Bft)
01.08.2012 05:00 13,2 C 94 % 1014,9 hPa 0,0 l/m N 0,00 h 0 W/m 3,5 km/h (1 Bft)
01.08.2012 06:00 13,0 C 94 % 1014,9 hPa 0,0 l/m N-NW 0,00 h 22 W/m 4,3 km/h (1 Bft)
01.08.2012 07:00 14,5 C 90 % 1014,9 hPa 0,0 l/m N-NW 0,58 h 140 W/m 4,9 km/h (1 Bft)
01.08.2012 08:00 16,7 C 82 % 1014,7 hPa 0,0 l/m NO 1,00 h 315 W/m 6,5 km/h (2 Bft)
01.08.2012 09:00 18,5 C 77 % 1014,4 hPa 0,0 l/m NO 1,00 h 485 W/m 7,9 km/h (2 Bft)
01.08.2012 10:00 21,2 C 69 % 1013,8 hPa 0,0 l/m NO 1,00 h 640 W/m 8,4 km/h (2 Bft)
01.08.2012 11:00 23,5 C 61 % 1013,2 hPa 0,0 l/m O 1,00 h 770 W/m 10,5 km/h (2 Bft)
01.08.2012 12:00 25,9 C 52 % 1012,6 hPa 0,0 l/m O-NO 1,00 h 851 W/m 12,4 km/h (3 Bft)
01.08.2012 13:00 27,6 C 44 % 1012,2 hPa 0,0 l/m O 1,00 h 887 W/m 13,2 km/h (3 Bft)
01.08.2012 14:00 28,7 C 41 % 1011,5 hPa 0,0 l/m SO 1,00 h 868 W/m 10,1 km/h (2 Bft)
01.08.2012 15:00 29,8 C 37 % 1010,9 hPa 0,0 l/m O 1,00 h 801 W/m 9,3 km/h (2 Bft)
01.08.2012 16:00 30,8 C 33 % 1010,5 hPa 0,0 l/m S-SO 1,00 h 691 W/m 7,4 km/h (2 Bft)
01.08.2012 17:00 30,5 C 31 % 1009,8 hPa 0,0 l/m W-SW 1,00 h 557 W/m 6,5 km/h (2 Bft)
01.08.2012 18:00 29,8 C 31 % 1009,3 hPa 0,0 l/m W-SW 1,00 h 383 W/m 6,7 km/h (2 Bft)
01.08.2012 19:00 27,3 C 41 % 1009,0 hPa 0,0 l/m W-SW 1,00 h 186 W/m 2,9 km/h (1 Bft)
01.08.2012 20:00 22,7 C 57 % 1008,8 hPa 0,0 l/m N 0,17 h 13 W/m 0,1 km/h (0 Bft)
01.08.2012 21:00 20,2 C 60 % 1009,2 hPa 0,0 l/m N 0,00 h 0 W/m 0,0 km/h (0 Bft)
01.08.2012 22:00 18,8 C 64 % 1009,2 hPa 0,0 l/m N 0,00 h 0 W/m 0,1 km/h (0 Bft)
01.08.2012 23:00 17,8 C 67 % 1009,2 hPa 0,0 l/m N 0,00 h 0 W/m 0,7 km/h (0 Bft)
02.08.2012 00:00 17,5 C 70 % 1009,2 hPa 0,0 l/m N 0,00 h 0 W/m 0,5 km/h (0 Bft)
02.08.2012 01:00 17,1 C 73 % 1009,8 hPa 0,0 l/m SW 0,00 h 0 W/m 7,0 km/h (2 Bft)
02.08.2012 02:00 20,3 C 66 % 1011,3 hPa 0,0 l/m W 0,00 h 0 W/m 31,9 km/h (5 Bft)
02.08.2012 03:00 18,3 C 78 % 1011,4 hPa 0,2 l/m SW 0,00 h 0 W/m 15,4 km/h (3 Bft)
02.08.2012 04:00 17,5 C 85 % 1011,1 hPa 0,0 l/m S-SW 0,00 h 0 W/m 5,8 km/h (1 Bft)
02.08.2012 05:00 16,8 C 87 % 1011,0 hPa 0,0 l/m N 0,00 h 0 W/m 2,9 km/h (1 Bft)
02.08.2012 06:00 16,1 C 90 % 1011,3 hPa 0,0 l/m N 0,00 h 16 W/m 1,2 km/h (1 Bft)
02.08.2012 07:00 16,7 C 89 % 1011,2 hPa 0,0 l/m N 0,33 h 104 W/m 0,8 km/h (0 Bft)
02.08.2012 08:00 19,6 C 79 % 1011,8 hPa 0,0 l/m S-SO 0,92 h 277 W/m 3,3 km/h (1 Bft)
02.08.2012 09:00 21,7 C 72 % 1012,0 hPa 0,0 l/m SW 1,00 h 425 W/m 11,7 km/h (2 Bft)
02.08.2012 10:00 23,2 C 67 % 1012,2 hPa 0,0 l/m W-SW 1,00 h 570 W/m 12,0 km/h (2 Bft)
02.08.2012 11:00 24,2 C 63 % 1012,3 hPa 0,0 l/m W-SW 0,67 h 501 W/m 10,3 km/h (2 Bft)
02.08.2012 12:00 25,4 C 59 % 1012,2 hPa 0,0 l/m SW 1,00 h 829 W/m 9,0 km/h (2 Bft)
02.08.2012 13:00 25,9 C 58 % 1011,9 hPa 0,0 l/m W-SW 0,58 h 696 W/m 11,4 km/h (2 Bft)
02.08.2012 14:00 26,4 C 56 % 1011,6 hPa 0,0 l/m W-NW 0,58 h 684 W/m 10,2 km/h (2 Bft)
02.08.2012 15:00 26,8 C 56 % 1011,5 hPa 0,0 l/m NW 0,58 h 603 W/m 8,9 km/h (2 Bft)
02.08.2012 16:00 27,3 C 54 % 1011,4 hPa 0,0 l/m N-NO 0,67 h 575 W/m 9,9 km/h (2 Bft)
02.08.2012 17:00 27,2 C 55 % 1011,1 hPa 0,0 l/m N 0,67 h 431 W/m 9,3 km/h (2 Bft)
02.08.2012 18:00 26,7 C 55 % 1011,0 hPa 0,0 l/m N-NW 0,67 h 255 W/m 4,3 km/h (1 Bft)
02.08.2012 19:00 24,3 C 67 % 1010,9 hPa 0,0 l/m N-NW 0,00 h 30 W/m 1,6 km/h (1 Bft)
02.08.2012 20:00 22,7 C 70 % 1011,5 hPa 0,0 l/m N-NO 0,00 h 8 W/m 8,4 km/h (2 Bft)
02.08.2012 21:00 20,0 C 76 % 1012,2 hPa 0,0 l/m N-NO 0,00 h 0 W/m 6,0 km/h (2 Bft)
02.08.2012 22:00 18,7 C 81 % 1012,8 hPa 0,0 l/m N 0,00 h 0 W/m 4,3 km/h (1 Bft)
02.08.2012 23:00 18,4 C 83 % 1013,1 hPa 0,0 l/m N 0,00 h 0 W/m 3,9 km/h (1 Bft)
03.08.2012 00:00 17,7 C 93 % 1014,0 hPa 7,0 l/m N-NW 0,00 h 0 W/m 10,2 km/h (2 Bft)
03.08.2012 01:00 17,0 C 96 % 1014,1 hPa 0,2 l/m N-NW 0,00 h 0 W/m 4,4 km/h (1 Bft)
03.08.2012 02:00 16,9 C 97 % 1014,3 hPa 0,0 l/m O-SO 0,00 h 0 W/m 2,1 km/h (1 Bft)
03.08.2012 03:00 16,8 C 97 % 1014,5 hPa 1,0 l/m O 0,00 h 0 W/m 3,3 km/h (1 Bft)
03.08.2012 04:00 16,6 C 98 % 1014,3 hPa 0,0 l/m N 0,00 h 0 W/m 1,2 km/h (1 Bft)
03.08.2012 05:00 16,2 C 98 % 1014,3 hPa 0,0 l/m N 0,00 h 0 W/m 0,1 km/h (0 Bft)
03.08.2012 06:00 16,3 C 98 % 1014,6 hPa 0,0 l/m N 0,00 h 11 W/m 0,7 km/h (0 Bft)
03.08.2012 07:00 16,7 C 98 % 1014,7 hPa 0,0 l/m O 0,00 h 56 W/m 1,9 km/h (1 Bft)
03.08.2012 08:00 17,0 C 97 % 1014,8 hPa 0,4 l/m N 0,00 h 58 W/m 1,7 km/h (1 Bft)
03.08.2012 09:00 17,1 C 97 % 1015,0 hPa 0,2 l/m SO 0,00 h 69 W/m 2,5 km/h (1 Bft)
03.08.2012 10:00 17,8 C 96 % 1015,2 hPa 0,0 l/m S 0,00 h 198 W/m 4,8 km/h (1 Bft)
03.08.2012 11:00 20,0 C 86 % 1015,1 hPa 0,0 l/m S 0,75 h 714 W/m 7,8 km/h (2 Bft)
03.08.2012 12:00 21,8 C 78 % 1014,7 hPa 0,0 l/m S-SW 0,42 h 611 W/m 8,0 km/h (2 Bft)
03.08.2012 13:00 21,8 C 75 % 1014,3 hPa 0,0 l/m SW 0,17 h 385 W/m 9,0 km/h (2 Bft)
03.08.2012 14:00 22,7 C 71 % 1014,1 hPa 0,0 l/m S-SW 0,42 h 640 W/m 7,9 km/h (2 Bft)
03.08.2012 15:00 22,3 C 70 % 1013,8 hPa 0,0 l/m N 0,25 h 275 W/m 9,4 km/h (2 Bft)
03.08.2012 16:00 23,4 C 65 % 1013,4 hPa 0,0 l/m N-NO 0,42 h 399 W/m 9,1 km/h (2 Bft)
03.08.2012 17:00 23,9 C 61 % 1013,0 hPa 0,0 l/m O-SO 0,50 h 416 W/m 7,1 km/h (2 Bft)
03.08.2012 18:00 23,0 C 63 % 1013,1 hPa 0,0 l/m O-SO 0,00 h 94 W/m 5,1 km/h (1 Bft)
03.08.2012 19:00 22,1 C 73 % 1013,2 hPa 0,0 l/m O-SO 0,08 h 77 W/m 0,9 km/h (0 Bft)
03.08.2012 20:00 20,3 C 80 % 1013,3 hPa 0,0 l/m N 0,00 h 13 W/m 1,1 km/h (0 Bft)
03.08.2012 21:00 18,6 C 87 % 1013,7 hPa 0,0 l/m N 0,00 h 0 W/m 0,5 km/h (0 Bft)
03.08.2012 22:00 18,1 C 89 % 1014,0 hPa 0,0 l/m N 0,00 h 0 W/m 0,1 km/h (0 Bft)
03.08.2012 23:00 18,0 C 90 % 1014,0 hPa 0,0 l/m N 0,00 h 0 W/m 0,0 km/h (0 Bft)
04.08.2012 00:00 17,3 C 93 % 1013,9 hPa 0,0 l/m N 0,00 h 0 W/m 0,1 km/h (0 Bft)
04.08.2012 01:00 16,8 C 94 % 1013,8 hPa 0,0 l/m N-NO 0,00 h 0 W/m 2,0 km/h (1 Bft)
04.08.2012 02:00 16,4 C 94 % 1013,6 hPa 0,0 l/m N-NO 0,00 h 0 W/m 5,1 km/h (1 Bft)
04.08.2012 03:00 16,2 C 93 % 1013,5 hPa 0,0 l/m N 0,00 h 0 W/m 3,9 km/h (1 Bft)
04.08.2012 04:00 15,7 C 93 % 1013,3 hPa 0,0 l/m N 0,00 h 0 W/m 4,8 km/h (1 Bft)
04.08.2012 05:00 15,6 C 89 % 1013,2 hPa 0,0 l/m N 0,00 h 0 W/m 4,9 km/h (1 Bft)
04.08.2012 06:00 15,6 C 86 % 1013,3 hPa 0,0 l/m N 0,00 h 12 W/m 3,2 km/h (1 Bft)
04.08.2012 07:00 15,9 C 84 % 1013,3 hPa 0,0 l/m N 0,00 h 39 W/m 2,8 km/h (1 Bft)
04.08.2012 08:00 16,8 C 82 % 1013,4 hPa 0,0 l/m N 0,00 h 98 W/m 3,7 km/h (1 Bft)
04.08.2012 09:00 18,4 C 77 % 1013,6 hPa 0,0 l/m N 0,42 h 331 W/m 6,3 km/h (2 Bft)
04.08.2012 10:00 20,4 C 71 % 1013,3 hPa 0,0 l/m O-NO 0,83 h 519 W/m 8,4 km/h (2 Bft)
04.08.2012 11:00 22,0 C 69 % 1012,8 hPa 0,0 l/m O 1,00 h 696 W/m 10,1 km/h (2 Bft)
04.08.2012 12:00 22,9 C 67 % 1012,4 hPa 0,0 l/m W-SW 1,00 h 770 W/m 8,2 km/h (2 Bft)
04.08.2012 13:00 24,0 C 65 % 1012,1 hPa 0,0 l/m W-SW 1,00 h 858 W/m 8,7 km/h (2 Bft)
04.08.2012 14:00 24,8 C 61 % 1011,6 hPa 0,0 l/m W 0,83 h 754 W/m 7,8 km/h (2 Bft)
04.08.2012 15:00 26,3 C 52 % 1010,9 hPa 0,0 l/m S-SW 0,92 h 715 W/m 9,5 km/h (2 Bft)
04.08.2012 16:00 26,1 C 51 % 1010,1 hPa 0,0 l/m S-SW 0,75 h 571 W/m 8,7 km/h (2 Bft)
04.08.2012 17:00 26,4 C 50 % 1010,0 hPa 0,0 l/m SW 1,00 h 477 W/m 11,0 km/h (2 Bft)
04.08.2012 18:00 25,9 C 48 % 1009,6 hPa 0,0 l/m SW 1,00 h 365 W/m 10,1 km/h (2 Bft)
04.08.2012 19:00 24,4 C 53 % 1009,5 hPa 0,0 l/m SW 0,50 h 118 W/m 3,5 km/h (1 Bft)
04.08.2012 20:00 21,7 C 68 % 1009,5 hPa 0,0 l/m SW 0,08 h 22 W/m 2,5 km/h (1 Bft)
04.08.2012 21:00 20,5 C 68 % 1009,9 hPa 0,0 l/m SW 0,00 h 0 W/m 3,9 km/h (1 Bft)
04.08.2012 22:00 18,8 C 79 % 1009,4 hPa 0,0 l/m N 0,00 h 0 W/m 0,4 km/h (0 Bft)
04.08.2012 23:00 17,7 C 84 % 1009,1 hPa 0,0 l/m N 0,00 h 0 W/m 1,1 km/h (0 Bft)
05.08.2012 00:00 17,4 C 87 % 1009,5 hPa 0,0 l/m SW 0,00 h 0 W/m 1,9 km/h (1 Bft)
05.08.2012 01:00 17,6 C 87 % 1010,3 hPa 0,4 l/m W-NW 0,00 h 0 W/m 5,9 km/h (2 Bft)
05.08.2012 02:00 17,2 C 90 % 1009,8 hPa 0,4 l/m W 0,00 h 0 W/m 5,1 km/h (1 Bft)
05.08.2012 03:00 16,6 C 94 % 1009,0 hPa 0,0 l/m SW 0,00 h 0 W/m 6,3 km/h (2 Bft)
05.08.2012 04:00 16,3 C 96 % 1009,6 hPa 0,0 l/m W 0,00 h 0 W/m 4,4 km/h (1 Bft)
05.08.2012 05:00 16,5 C 96 % 1009,5 hPa 0,0 l/m W 0,00 h 0 W/m 6,2 km/h (2 Bft)
05.08.2012 06:00 16,6 C 96 % 1009,2 hPa 0,0 l/m W 0,00 h 16 W/m 5,2 km/h (1 Bft)
05.08.2012 07:00 16,6 C 97 % 1009,3 hPa 1,0 l/m SW 0,00 h 16 W/m 14,2 km/h (3 Bft)
05.08.2012 08:00 16,9 C 97 % 1009,0 hPa 0,2 l/m S 0,33 h 159 W/m 10,2 km/h (2 Bft)
05.08.2012 09:00 19,1 C 90 % 1008,8 hPa 0,0 l/m SW 1,00 h 457 W/m 10,4 km/h (2 Bft)
05.08.2012 10:00 21,4 C 76 % 1009,0 hPa 0,0 l/m S-SW 1,00 h 640 W/m 13,6 km/h (3 Bft)
05.08.2012 11:00 22,6 C 72 % 1009,2 hPa 0,0 l/m SW 0,92 h 712 W/m 16,8 km/h (3 Bft)
05.08.2012 12:00 23,7 C 64 % 1009,2 hPa 0,0 l/m W 0,92 h 740 W/m 17,2 km/h (3 Bft)
05.08.2012 13:00 24,3 C 59 % 1008,9 hPa 0,0 l/m W 0,83 h 779 W/m 17,0 km/h (3 Bft)
05.08.2012 14:00 23,3 C 61 % 1009,0 hPa 0,0 l/m W-SW 0,08 h 254 W/m 14,8 km/h (3 Bft)
05.08.2012 15:00 22,1 C 71 % 1008,8 hPa 0,0 l/m SW 0,00 h 181 W/m 10,7 km/h (2 Bft)
05.08.2012 16:00 23,8 C 63 % 1008,6 hPa 0,0 l/m S-SW 1,00 h 631 W/m 11,5 km/h (2 Bft)
05.08.2012 17:00 23,8 C 59 % 1007,9 hPa 0,0 l/m SW 0,67 h 338 W/m 7,5 km/h (2 Bft)
05.08.2012 18:00 24,0 C 58 % 1007,0 hPa 0,0 l/m SW 0,75 h 344 W/m 4,9 km/h (1 Bft)
05.08.2012 19:00 23,9 C 57 % 1006,4 hPa 0,0 l/m S-SO 0,67 h 147 W/m 4,9 km/h (1 Bft)
05.08.2012 20:00 21,1 C 72 % 1006,4 hPa 0,0 l/m SO 0,00 h 14 W/m 1,9 km/h (1 Bft)
05.08.2012 21:00 18,7 C 81 % 1006,3 hPa 0,0 l/m N 0,00 h 0 W/m 0,1 km/h (0 Bft)
05.08.2012 22:00 17,8 C 86 % 1006,1 hPa 0,0 l/m N 0,00 h 0 W/m 1,5 km/h (1 Bft)
05.08.2012 23:00 17,7 C 87 % 1006,2 hPa 0,0 l/m N 0,00 h 0 W/m 1,2 km/h (1 Bft)
Min-Datum _ 30.07.12 01.08.12 05.08.12 - - - - 30.07.12
_ Min-Zeit 04:40 18:20 23:35 - - - - 00:05
Minimum _ 9,8 C 27 % 1005,8 hPa - - - - 0,0 km/h (0 Bft)
Max-Datum _ 01.08.12 30.07.12 30.07.12 03.08.12 - 30.07.12 05.08.12 02.08.12
_ Max-Zeit 16:35 04:55 08:45 00:20 - 07:15 13:25 02:00
Maximum _ 31,1 C 99 % 1018,0 hPa 7,0 l/m - 0,08 h 1095 W/m 43,5 km/h
W (6 Bft)
Durchschnitt _ 19,5 C 75 % 1013,1 hPa #11,0 l/m SW #60:55 h 396 W/m 6,5 km/h (2 Bft)